Time;durP1;ratioP1;P1;durP2;ratioP2;P2;SDS_P1;SDS_P2;PMS_P1;PMS_P2;Temp;Humidity;BMP_temperature;BMP_pressure;BME280_temperature;BME280_humidity;BME280_pressure;Samples;Min_cycle;Max_cycle;Signal;HPM_P1;HPM_P2
2022/10/16 00:00:39;;;;;;;0.00;0.00;;;8.70;99.90;;;;;;4981179;28;20019;-77
2022/10/16 00:03:12;;;;;;;0.00;0.00;;;8.70;99.90;;;;;;4998565;28;20031;-76
2022/10/16 00:05:59;;;;;;;0.00;0.00;;;8.70;99.90;;;;;;4996584;28;20059;-77
2022/10/16 00:08:29;;;;;;;0.00;0.00;;;8.70;99.90;;;;;;5000871;28;20014;-76
2022/10/16 00:11:25;;;;;;;0.73;0.73;;;8.60;99.90;;;;;;4979302;28;20031;-78
2022/10/16 00:13:54;;;;;;;0.00;0.00;;;8.60;99.90;;;;;;4914042;29;20059;-78
2022/10/16 00:16:23;;;;;;;0.00;0.00;;;8.50;99.90;;;;;;4914777;29;20062;-78
2022/10/16 00:18:49;;;;;;;0.00;0.00;;;8.50;99.90;;;;;;4913465;29;20067;-76
2022/10/16 00:21:19;;;;;;;1.08;1.08;;;8.40;99.90;;;;;;4913712;29;20563;-77
2022/10/16 00:23:45;;;;;;;0.55;0.55;;;11.50;99.90;;;;;;4913316;29;20068;-76
2022/10/16 00:26:54;;;;;;;0.00;0.00;;;8.40;99.90;;;;;;4929778;29;20017;-76
2022/10/16 00:29:43;;;;;;;0.00;0.00;;;8.30;99.90;;;;;;4940881;29;20047;-75
2022/10/16 00:32:12;;;;;;;0.00;0.00;;;8.40;99.90;;;;;;4945657;29;20027;-75
2022/10/16 00:34:46;;;;;;;0.00;0.00;;;8.30;99.90;;;;;;4961653;29;20012;-75
2022/10/16 00:37:39;;;;;;;0.00;0.00;;;8.30;99.90;;;;;;4961604;29;20024;-74
2022/10/16 00:40:40;;;;;;;0.00;0.00;;;8.40;99.90;;;;;;4961493;29;20024;-76
2022/10/16 00:43:49;;;;;;;0.00;0.00;;;8.30;99.90;;;;;;4882444;29;20276;-76
2022/10/16 00:46:15;;;;;;;0.03;0.03;;;8.30;99.90;;;;;;4898440;29;20036;-75
2022/10/16 00:48:45;;;;;;;0.00;0.00;;;8.30;99.90;;;;;;4889518;29;20029;-76
2022/10/16 00:51:29;;;;;;;0.10;0.10;;;8.30;99.90;;;;;;4905935;29;20020;-76
2022/10/16 00:53:56;;;;;;;0.00;0.00;;;8.30;99.90;;;;;;4923649;29;20023;-76
2022/10/16 00:56:21;;;;;;;0.00;0.00;;;8.30;99.90;;;;;;4917016;29;20040;-76
2022/10/16 00:58:47;;;;;;;0.00;0.00;;;8.30;99.90;;;;;;4904172;29;20032;-76
2022/10/16 01:01:15;;;;;;;0.00;0.00;;;;;;;;;;4902563;29;20063;-77
2022/10/16 01:03:41;;;;;;;0.00;0.00;;;8.30;99.90;;;;;;4901673;29;20039;-77
2022/10/16 01:06:27;;;;;;;0.00;0.00;;;8.30;99.90;;;;;;4903863;29;20037;-77
2022/10/16 01:09:11;;;;;;;0.00;0.00;;;8.30;99.90;;;;;;4906504;29;20144;-77
2022/10/16 01:12:05;;;;;;;0.00;0.00;;;8.30;99.90;;;;;;4903830;29;20167;-77
2022/10/16 01:14:56;;;;;;;0.10;0.10;;;8.30;99.90;;;;;;4890781;29;20051;-76
2022/10/16 01:18:00;;;;;;;0.00;0.00;;;8.20;99.90;;;;;;4897537;29;20028;-77
2022/10/16 01:20:45;;;;;;;15.45;14.45;;;8.20;99.90;;;;;;4855294;29;20049;-76
2022/10/16 01:23:13;;;;;;;0.00;0.00;;;8.20;99.90;;;;;;4855090;29;20045;-76
2022/10/16 01:26:04;;;;;;;0.10;0.10;;;8.20;99.90;;;;;;4853435;29;20107;-75
2022/10/16 01:28:41;;;;;;;0.10;0.10;;;8.20;99.90;;;;;;4867178;29;20041;-77
2022/10/16 01:31:10;;;;;;;0.00;0.00;;;8.20;99.90;;;;;;4864851;29;20045;-76
2022/10/16 01:33:45;;;;;;;0.00;0.00;;;8.10;99.90;;;;;;4886652;29;20045;-78
2022/10/16 01:36:21;;;;;;;0.00;0.00;;;8.00;99.90;;;;;;4840251;29;20061;-77
2022/10/16 01:38:52;;;;;;;0.20;0.20;;;8.10;99.90;;;;;;4887745;29;20044;-76
2022/10/16 01:41:47;;;;;;;0.10;0.10;;;8.00;99.90;;;;;;4889737;29;20052;-76
2022/10/16 01:44:24;;;;;;;0.00;0.00;;;8.00;99.90;;;;;;4903745;29;20074;-76
2022/10/16 01:47:33;;;;;;;0.45;0.43;;;7.90;99.90;;;;;;4888788;29;20106;-76
2022/10/16 01:50:01;;;;;;;9.20;2.55;;;8.00;99.90;;;;;;4848822;29;20078;-75
2022/10/16 01:53:13;;;;;;;0.00;0.00;;;8.00;99.90;;;;;;4848448;29;20062;-75
2022/10/16 01:55:45;;;;;;;0.00;0.00;;;8.00;99.90;;;;;;4878327;29;20028;-75
2022/10/16 01:58:13;;;;;;;0.10;0.10;;;8.00;99.90;;;;;;4901723;29;20044;-77
2022/10/16 02:00:43;;;;;;;0.00;0.00;;;8.00;99.90;;;;;;4894108;29;20036;-76
2022/10/16 02:03:11;;;;;;;0.00;0.00;;;8.10;99.90;;;;;;4893550;29;20089;-76
2022/10/16 02:05:39;;;;;;;0.00;0.00;;;8.10;99.90;;;;;;4895437;29;20041;-77
2022/10/16 02:08:06;;;;;;;2.08;1.98;;;8.00;99.90;;;;;;4894520;29;20056;-76
2022/10/16 02:11:37;;;;;;;0.00;0.00;;;8.00;99.90;;;;;;4968194;23;20642;-77
2022/10/16 02:14:06;;;;;;;0.10;0.10;;;7.20;99.90;;;;;;4980718;28;20525;-78
2022/10/16 02:16:41;;;;;;;0.00;0.00;;;8.00;99.90;;;;;;4975134;28;20027;-78
2022/10/16 02:19:07;;;;;;;0.10;0.10;;;8.00;99.90;;;;;;4992505;28;20023;-78
2022/10/16 02:21:43;;;;;;;0.10;0.10;;;7.90;99.90;;;;;;4978221;28;20019;-78
2022/10/16 02:24:48;;;;;;;0.10;0.10;;;7.90;99.90;;;;;;4976177;28;20043;-78
2022/10/16 02:27:52;;;;;;;0.00;0.00;;;7.90;99.90;;;;;;4994316;28;20025;-78
2022/10/16 02:30:51;;;;;;;0.00;0.00;;;8.30;99.90;;;;;;4994936;28;20053;-78
2022/10/16 02:33:22;;;;;;;1.90;1.83;;;7.90;99.90;;;;;;4993677;28;20042;-78
2022/10/16 02:35:55;;;;;;;0.00;0.00;;;7.90;99.90;;;;;;4996559;28;20023;-78
2022/10/16 02:38:22;;;;;;;0.10;0.10;;;7.90;99.90;;;;;;4996416;28;20029;-78
2022/10/16 02:40:48;;;;;;;0.05;0.05;;;7.90;99.90;;;;;;4981674;28;20030;-78
2022/10/16 02:43:14;;;;;;;0.10;0.10;;;7.90;99.90;;;;;;5002506;28;20033;-78
2022/10/16 02:45:40;;;;;;;0.00;0.00;;;7.50;99.90;;;;;;5004766;28;20094;-78
2022/10/16 02:48:19;;;;;;;0.00;0.00;;;7.90;99.90;;;;;;5004090;28;20030;-77
2022/10/16 02:50:45;;;;;;;0.00;0.00;;;;;;;;;;5005022;28;20042;-78
2022/10/16 02:53:11;;;;;;;0.00;0.00;;;7.90;99.90;;;;;;5004347;28;20061;-77
2022/10/16 02:55:37;;;;;;;0.10;0.10;;;8.00;99.90;;;;;;5005388;28;20030;-77
2022/10/16 02:58:03;;;;;;;0.00;0.00;;;7.90;99.90;;;;;;5012888;28;20042;-77
2022/10/16 03:00:30;;;;;;;0.08;0.08;;;7.90;99.90;;;;;;5017885;28;20023;-79
2022/10/16 03:03:24;;;;;;;0.00;0.00;;;7.90;99.90;;;;;;5017770;28;20026;-78
2022/10/16 03:06:06;;;;;;;0.10;0.10;;;7.70;99.90;;;;;;5017535;28;20022;-77
2022/10/16 03:08:55;;;;;;;0.00;0.00;;;7.60;99.90;;;;;;5015418;28;20036;-78
2022/10/16 03:11:21;;;;;;;0.00;0.00;;;7.60;99.90;;;;;;5000594;28;20034;-76
2022/10/16 03:13:46;;;;;;;0.00;0.00;;;7.60;99.90;;;;;;5017348;28;20050;-77
2022/10/16 03:16:21;;;;;;;0.00;0.00;;;7.50;99.90;;;;;;5016288;28;20054;-78
2022/10/16 03:19:07;;;;;;;0.00;0.00;;;7.50;99.90;;;;;;5000394;28;20034;-81
2022/10/16 03:21:34;;;;;;;0.00;0.00;;;7.50;99.90;;;;;;5016936;28;20010;-77
2022/10/16 03:24:02;;;;;;;19.10;18.20;;;7.40;99.90;;;;;;5018061;28;20011;-77
2022/10/16 03:26:34;;;;;;;0.00;0.00;;;7.50;99.90;;;;;;5017178;28;20022;-78
2022/10/16 03:29:08;;;;;;;0.08;0.08;;;7.50;99.90;;;;;;5016890;28;20038;-77
2022/10/16 03:32:24;;;;;;;0.00;0.00;;;7.50;99.90;;;;;;5000480;28;20029;-78
2022/10/16 03:34:50;;;;;;;0.10;0.10;;;7.50;99.90;;;;;;5000819;28;20021;-80
2022/10/16 03:37:16;;;;;;;0.00;0.00;;;4.40;99.90;;;;;;5017347;28;20022;-76
2022/10/16 03:39:41;;;;;;;0.00;0.00;;;7.60;99.90;;;;;;5017932;28;20054;-81
2022/10/16 03:42:15;;;;;;;0.00;0.00;;;7.60;99.90;;;;;;5004564;28;20023;-78
2022/10/16 03:44:41;;;;;;;0.00;0.00;;;7.70;99.90;;;;;;5021305;28;20011;-77
2022/10/16 03:47:06;;;;;;;1.00;1.00;;;7.70;99.90;;;;;;5020914;28;20026;-78
2022/10/16 03:49:32;;;;;;;4.13;3.95;;;7.60;99.90;;;;;;5020904;28;20026;-77
2022/10/16 03:51:58;;;;;;;0.10;0.10;;;7.60;99.90;;;;;;5020960;28;20026;-77
2022/10/16 03:54:44;;;;;;;0.00;0.00;;;7.60;99.90;;;;;;5018496;28;20029;-77
2022/10/16 03:57:20;;;;;;;0.10;0.10;;;7.70;99.90;;;;;;5021199;28;20006;-77
2022/10/16 03:59:46;;;;;;;0.10;0.10;;;7.60;99.90;;;;;;5020291;28;20018;-77
2022/10/16 04:02:12;;;;;;;0.00;0.00;;;7.60;99.90;;;;;;5020247;28;20029;-76
2022/10/16 04:05:19;;;;;;;0.00;0.00;;;7.50;99.90;;;;;;5003414;28;19998;-78
2022/10/16 04:07:45;;;;;;;0.00;0.00;;;7.50;99.90;;;;;;4960485;29;20040;-77
2022/10/16 04:10:44;;;;;;;0.03;0.03;;;7.50;99.90;;;;;;4959240;29;20076;-76
2022/10/16 04:13:16;;;;;;;0.10;0.10;;;7.40;99.90;;;;;;4934599;29;20067;-78
2022/10/16 04:15:42;;;;;;;0.10;0.10;;;7.80;99.90;;;;;;4924860;29;20032;-77
2022/10/16 04:18:08;;;;;;;0.85;0.85;;;7.30;99.90;;;;;;4908100;29;20516;-77
2022/10/16 04:20:36;;;;;;;0.00;0.00;;;5.80;99.90;;;;;;4925983;29;20036;-77
2022/10/16 04:23:02;;;;;;;0.03;0.03;;;7.30;99.90;;;;;;4919359;29;20033;-78
2022/10/16 04:25:30;;;;;;;0.08;0.08;;;7.30;99.90;;;;;;4926814;29;20255;-78
2022/10/16 04:27:56;;;;;;;0.00;0.00;;;7.30;99.90;;;;;;4930485;29;20078;-77
2022/10/16 04:30:28;;;;;;;0.00;0.00;;;7.30;99.90;;;;;;4940862;29;20020;-80
2022/10/16 04:32:57;;;;;;;0.10;0.10;;;7.30;99.90;;;;;;4941380;29;20186;-79
2022/10/16 04:35:23;;;;;;;1.10;1.10;;;7.30;99.90;;;;;;4941417;29;20016;-76
2022/10/16 04:38:12;;;;;;;0.00;0.00;;;7.30;99.90;;;;;;4941823;29;20119;-77
2022/10/16 04:40:57;;;;;;;0.10;0.10;;;7.30;99.90;;;;;;4941598;29;20020;-78
2022/10/16 04:43:23;;;;;;;0.00;0.00;;;7.30;99.90;;;;;;4938637;29;20055;-77
2022/10/16 04:45:50;;;;;;;0.00;0.00;;;7.40;99.90;;;;;;4996435;28;20224;-77
2022/10/16 04:48:22;;;;;;;0.00;0.00;;;7.30;99.90;;;;;;5000020;28;20037;-77
2022/10/16 04:50:49;;;;;;;0.00;0.00;;;7.30;99.90;;;;;;4998124;28;20033;-78
2022/10/16 04:53:17;;;;;;;0.00;0.00;;;8.90;99.90;;;;;;5005880;28;20034;-78
2022/10/16 04:55:43;;;;;;;0.25;0.25;;;7.30;99.90;;;;;;5006974;28;20078;-78
2022/10/16 04:58:11;;;;;;;0.00;0.00;;;7.30;99.90;;;;;;5005678;28;20037;-78
2022/10/16 05:00:38;;;;;;;0.00;0.00;;;7.20;99.90;;;;;;5004327;28;20049;-77
2022/10/16 05:03:07;;;;;;;0.00;0.00;;;7.20;99.90;;;;;;4986747;28;20101;-78
2022/10/16 05:05:39;;;;;;;0.10;0.10;;;6.80;99.90;;;;;;4976974;28;20032;-77
2022/10/16 05:08:06;;;;;;;0.00;0.00;;;7.20;99.90;;;;;;4977799;28;20034;-77
2022/10/16 05:10:33;;;;;;;0.08;0.08;;;7.20;99.90;;;;;;4994547;28;20046;-78
2022/10/16 05:13:21;;;;;;;0.00;0.00;;;7.20;99.90;;;;;;4999552;28;20023;-76
2022/10/16 05:16:15;;;;;;;0.00;0.00;;;7.20;99.90;;;;;;5019131;28;20026;-77
2022/10/16 05:18:41;;;;;;;0.00;0.00;;;;;;;;;;5001487;28;20022;-76
2022/10/16 05:21:33;;;;;;;0.10;0.10;;;7.10;99.90;;;;;;5019267;28;20014;-77
2022/10/16 05:23:59;;;;;;;0.00;0.00;;;7.10;99.90;;;;;;5019686;28;20061;-78
2022/10/16 05:26:25;;;;;;;0.10;0.10;;;7.20;99.90;;;;;;5019117;28;20011;-77
2022/10/16 05:28:57;;;;;;;2.63;2.55;;;7.20;99.90;;;;;;5019524;28;20042;-77
2022/10/16 05:31:22;;;;;;;0.10;0.10;;;7.30;99.90;;;;;;5019241;28;20030;-79
2022/10/16 05:33:49;;;;;;;0.00;0.00;;;7.30;99.90;;;;;;5019171;28;20082;-76
2022/10/16 05:36:21;;;;;;;0.10;0.10;;;7.30;99.90;;;;;;5019409;28;20009;-76
2022/10/16 05:39:08;;;;;;;0.00;0.00;;;7.30;99.90;;;;;;5017883;28;20038;-77
2022/10/16 05:41:33;;;;;;;0.00;0.00;;;7.30;99.90;;;;;;5018810;28;20077;-76
2022/10/16 05:44:03;;;;;;;0.03;0.03;;;7.30;99.90;;;;;;5018184;28;20066;-79
2022/10/16 05:46:30;;;;;;;0.00;0.00;;;7.50;99.90;;;;;;5018961;28;19998;-77
2022/10/16 05:49:28;;;;;;;0.10;0.10;;;7.40;99.90;;;;;;5018349;28;20022;-78
2022/10/16 05:52:03;;;;;;;0.00;0.00;;;7.50;99.90;;;;;;4959350;29;20036;-77
2022/10/16 05:54:35;;;;;;;0.10;0.10;;;;;;;;;;4959022;29;20032;-76
2022/10/16 05:57:28;;;;;;;0.08;0.08;;;7.60;99.90;;;;;;4957215;29;20018;-78
2022/10/16 05:59:54;;;;;;;0.10;0.10;;;7.70;99.90;;;;;;4934370;29;20149;-78
2022/10/16 06:02:20;;;;;;;0.10;0.10;;;7.70;99.90;;;;;;4931472;29;20040;-77
2022/10/16 06:04:46;;;;;;;0.00;0.00;;;7.70;99.90;;;;;;4914616;29;20044;-77
2022/10/16 06:07:11;;;;;;;0.08;0.08;;;7.80;99.90;;;;;;4932255;29;20391;-77
2022/10/16 06:09:37;;;;;;;0.00;0.00;;;7.80;99.90;;;;;;4930355;29;20510;-77
2022/10/16 06:12:09;;;;;;;0.00;0.00;;;7.90;99.90;;;;;;4914245;29;20431;-78
2022/10/16 06:14:35;;;;;;;0.10;0.10;;;8.00;99.90;;;;;;4931597;29;20131;-77
2022/10/16 06:17:00;;;;;;;0.00;0.00;;;8.10;99.90;;;;;;4930575;29;20059;-78
2022/10/16 06:19:33;;;;;;;0.05;0.05;;;8.20;99.90;;;;;;4931867;29;20319;-78
2022/10/16 06:21:59;;;;;;;0.00;0.00;;;8.30;99.90;;;;;;4955518;28;20034;-78
2022/10/16 06:24:29;;;;;;;0.85;0.85;;;8.40;99.90;;;;;;5004812;28;20410;-79
2022/10/16 06:26:57;;;;;;;0.10;0.10;;;8.50;99.90;;;;;;5002169;28;20065;-77
2022/10/16 06:29:22;;;;;;;0.10;0.10;;;8.50;99.90;;;;;;5012331;28;20017;-76
2022/10/16 06:31:48;;;;;;;0.90;0.90;;;8.50;99.90;;;;;;5001958;28;20027;-77
2022/10/16 06:34:14;;;;;;;0.10;0.10;;;8.60;99.90;;;;;;5001373;28;20003;-79
2022/10/16 06:36:40;;;;;;;0.10;0.10;;;8.80;99.90;;;;;;5001303;28;20019;-79
2022/10/16 06:39:07;;;;;;;0.10;0.10;;;8.80;99.90;;;;;;5017788;28;20015;-77
2022/10/16 06:41:34;;;;;;;0.00;0.00;;;8.90;99.90;;;;;;5001544;28;20018;-78
2022/10/16 06:43:59;;;;;;;0.10;0.10;;;9.00;99.90;;;;;;5010432;28;20066;-78
2022/10/16 06:46:26;;;;;;;17.00;16.25;;;9.00;99.90;;;;;;4999194;28;20033;-79
2022/10/16 06:48:53;;;;;;;0.00;0.00;;;9.10;99.90;;;;;;4981890;28;20263;-78
2022/10/16 06:51:23;;;;;;;0.00;0.00;;;9.20;99.90;;;;;;5001407;28;20022;-79
2022/10/16 06:53:52;;;;;;;0.10;0.10;;;9.10;99.90;;;;;;5001358;28;20022;-78
2022/10/16 06:56:26;;;;;;;0.10;0.10;;;9.20;99.90;;;;;;5000594;28;20027;-78
2022/10/16 06:59:05;;;;;;;0.22;0.22;;;9.30;99.90;;;;;;5005133;28;20033;-76
2022/10/16 07:01:44;;;;;;;0.00;0.00;;;9.40;99.90;;;;;;4984525;28;20043;-78
2022/10/16 07:04:10;;;;;;;0.03;0.03;;;9.50;99.90;;;;;;4980215;28;20014;-78
2022/10/16 07:06:40;;;;;;;0.65;0.65;;;9.50;99.90;;;;;;5018215;28;20046;-77
2022/10/16 07:09:09;;;;;;;0.10;0.10;;;9.60;99.90;;;;;;5017346;28;20043;-77
2022/10/16 07:11:37;;;;;;;0.00;0.00;;;9.70;99.90;;;;;;5016686;28;20021;-78
2022/10/16 07:14:03;;;;;;;0.00;0.00;;;9.90;99.90;;;;;;4992453;28;20579;-77
2022/10/16 07:16:31;;;;;;;0.20;0.20;;;9.90;99.90;;;;;;4991785;28;20027;-77
2022/10/16 07:18:59;;;;;;;0.40;0.40;;;10.00;99.90;;;;;;4973921;28;20085;-78
2022/10/16 07:21:46;;;;;;;0.10;0.10;;;10.20;99.90;;;;;;4987513;28;20034;-77
2022/10/16 07:24:14;;;;;;;0.00;0.00;;;10.30;99.90;;;;;;4991167;28;20026;-77
2022/10/16 07:26:42;;;;;;;0.40;0.40;;;10.40;99.90;;;;;;4990183;28;20331;-78
2022/10/16 07:29:21;;;;;;;0.00;0.00;;;10.60;99.90;;;;;;4975891;28;20038;-78
2022/10/16 07:31:51;;;;;;;0.10;0.10;;;8.10;99.90;;;;;;5000744;28;20033;-79
2022/10/16 07:34:24;;;;;;;0.20;0.20;;;10.80;99.90;;;;;;4999233;28;20033;-78
2022/10/16 07:36:50;;;;;;;0.85;0.85;;;11.00;99.90;;;;;;4993812;28;20023;-77
2022/10/16 07:39:21;;;;;;;0.10;0.10;;;11.10;99.90;;;;;;4994922;28;20094;-81
2022/10/16 07:41:50;;;;;;;1.88;1.83;;;11.30;99.90;;;;;;4997756;28;20025;-81
2022/10/16 07:44:42;;;;;;;0.20;0.20;;;11.50;99.90;;;;;;5007723;28;20241;-76
2022/10/16 07:47:08;;;;;;;0.60;0.60;;;11.60;99.90;;;;;;5009449;28;20026;-77
2022/10/16 07:50:03;;;;;;;0.10;0.10;;;11.50;99.90;;;;;;5012994;28;20038;-79
2022/10/16 07:52:30;;;;;;;0.28;0.28;;;11.70;99.90;;;;;;5013795;28;20027;-82
2022/10/16 07:54:56;;;;;;;0.30;0.30;;;11.80;99.90;;;;;;5016840;28;20017;-78
2022/10/16 07:57:22;;;;;;;0.20;0.20;;;12.00;99.90;;;;;;5015886;28;20082;-81
2022/10/16 07:59:48;;;;;;;1.95;1.85;;;12.20;99.90;;;;;;4980261;28;20431;-78
2022/10/16 08:02:13;;;;;;;2.60;2.45;;;12.40;99.90;;;;;;4995062;28;20102;-79
2022/10/16 08:04:39;;;;;;;0.20;0.20;;;12.50;99.90;;;;;;5001660;28;20088;-80
2022/10/16 08:07:08;;;;;;;0.25;0.25;;;12.70;99.90;;;;;;5000105;28;20074;-79
2022/10/16 08:09:36;;;;;;;0.20;0.20;;;12.50;99.90;;;;;;4978976;28;20045;-82
2022/10/16 08:12:02;;;;;;;0.52;0.52;;;12.60;99.90;;;;;;4995750;28;20046;-78
2022/10/16 08:14:28;;;;;;;0.52;0.52;;;12.80;99.90;;;;;;4995996;28;20046;-82
2022/10/16 08:16:54;;;;;;;1.95;1.85;;;12.90;99.90;;;;;;4999102;28;20029;-93
2022/10/16 08:19:20;;;;;;;0.10;0.10;;;13.10;99.90;;;;;;5000345;28;20139;-77
2022/10/16 08:21:49;;;;;;;1.17;1.02;;;13.20;99.90;;;;;;4986793;28;20149;-92
2022/10/16 08:24:14;;;;;;;1.40;1.38;;;13.40;99.90;;;;;;4987276;28;20252;-84
2022/10/16 08:26:41;;;;;;;0.10;0.10;;;13.50;99.90;;;;;;4972817;28;20287;-79
2022/10/16 08:29:06;;;;;;;1.80;1.70;;;13.60;99.90;;;;;;4988535;28;20054;-84
2022/10/16 09:01:41;;;;;;;2.97;2.85;;;15.20;99.90;;;;;;5127301;23;20269;-84
2022/10/16 09:04:44;;;;;;;0.43;0.43;;;15.40;99.90;;;;;;4983035;28;20477;-91
2022/10/16 09:07:20;;;;;;;2.22;2.13;;;12.40;99.90;;;;;;4983348;28;20030;-84
2022/10/16 09:09:58;;;;;;;1.08;1.08;;;15.60;99.90;;;;;;4982853;28;20112;-87
2022/10/16 09:12:56;;;;;;;14.80;4.68;;;15.70;99.90;;;;;;4983268;28;20235;-77
2022/10/16 09:15:46;;;;;;;0.10;0.10;;;15.60;99.90;;;;;;4983715;28;20423;-91
2022/10/16 09:18:17;;;;;;;0.30;0.30;;;15.80;99.90;;;;;;4987773;28;20022;-86
2022/10/16 09:21:07;;;;;;;1.70;1.60;;;16.00;99.90;;;;;;4987784;28;20011;-84
2022/10/16 09:23:36;;;;;;;1.95;1.85;;;15.90;99.90;;;;;;4983906;28;20029;-88
2022/10/16 09:26:05;;;;;;;0.40;0.40;;;16.00;99.90;;;;;;4984600;28;20303;-85
2022/10/16 09:28:31;;;;;;;2.67;1.50;;;16.00;99.90;;;;;;4983564;28;20057;-80
2022/10/16 09:30:57;;;;;;;1.75;1.65;;;15.90;99.90;;;;;;4965457;28;20080;-81
2022/10/16 09:33:28;;;;;;;3.58;3.40;;;16.10;99.90;;;;;;4983364;28;20212;-80
2022/10/16 09:35:56;;;;;;;0.82;0.82;;;16.30;99.90;;;;;;4983009;28;20018;-83
2022/10/16 09:38:32;;;;;;;0.32;0.32;;;16.20;99.90;;;;;;4982176;28;20331;-90
2022/10/16 09:41:14;;;;;;;0.30;0.30;;;16.40;99.90;;;;;;4965522;28;20320;-84
2022/10/16 09:43:48;;;;;;;1.63;1.52;;;16.60;99.90;;;;;;4988501;28;20046;-84
2022/10/16 09:46:43;;;;;;;0.20;0.20;;;16.90;99.90;;;;;;4982702;28;20576;-80
2022/10/16 09:49:23;;;;;;;4.53;4.22;;;17.10;99.90;;;;;;4905086;29;20671;-87
2022/10/16 09:51:49;;;;;;;0.22;0.22;;;17.30;99.50;;;;;;4922053;29;20028;-88
2022/10/16 09:54:18;;;;;;;3.08;2.88;;;17.50;98.80;;;;;;4921656;29;20052;-88
2022/10/16 09:56:46;;;;;;;0.75;0.75;;;17.60;98.80;;;;;;4905065;29;20020;-89
2022/10/16 09:59:23;;;;;;;1.90;1.02;;;17.70;99.20;;;;;;4920916;29;20108;-82
2022/10/16 10:01:51;;;;;;;0.10;0.10;;;17.70;98.20;;;;;;4921179;29;20055;-83
2022/10/16 10:04:22;;;;;;;0.40;0.40;;;17.90;97.70;;;;;;4904874;29;20051;-84
2022/10/16 10:06:56;;;;;;;1.67;1.58;;;18.10;97.30;;;;;;4922446;29;20036;-88
2022/10/16 10:09:33;;;;;;;6.78;4.88;;;18.20;96.60;;;;;;4921692;29;20261;-89
2022/10/16 10:12:04;;;;;;;0.10;0.10;;;18.30;96.50;;;;;;4925084;29;20229;-86
2022/10/16 10:14:39;;;;;;;0.20;0.20;;;18.40;96.30;;;;;;4930369;29;20519;-90
2022/10/16 10:17:05;;;;;;;2.53;2.25;;;18.50;95.70;;;;;;4931200;29;20114;-84
2022/10/16 10:19:40;;;;;;;4.38;1.45;;;18.50;96.10;;;;;;4931427;29;20558;-86
2022/10/16 10:22:23;;;;;;;0.10;0.10;;;18.70;95.10;;;;;;4930084;29;20027;-86
2022/10/16 10:25:08;;;;;;;2.45;2.35;;;18.70;95.20;;;;;;4938849;28;20057;-87
2022/10/16 10:28:26;;;;;;;4.38;2.17;;;19.00;94.70;;;;;;4984066;28;20019;-88
2022/10/16 10:31:29;;;;;;;0.40;0.40;;;19.00;94.10;;;;;;4922194;29;20103;-84
2022/10/16 10:34:36;;;;;;;0.35;0.35;;;19.30;94.10;;;;;;4921652;29;20167;-91
2022/10/16 10:37:15;;;;;;;0.10;0.10;;;19.20;93.40;;;;;;4883851;29;20070;-81
2022/10/16 10:39:52;;;;;;;1.10;0.82;;;19.60;92.60;;;;;;4883382;29;20387;-92
2022/10/16 10:42:46;;;;;;;0.30;0.30;;;19.70;92.40;;;;;;4883202;29;20033;-90
2022/10/16 10:45:26;;;;;;;0.75;0.75;;;19.30;91.70;;;;;;4881232;29;20679;-82
2022/10/16 10:48:17;;;;;;;0.45;0.45;;;20.00;91.20;;;;;;4883104;29;20075;-88
2022/10/16 10:50:51;;;;;;;0.65;0.65;;;20.10;91.30;;;;;;4882351;29;20051;-87
2022/10/16 10:53:35;;;;;;;1.45;1.13;;;20.10;90.90;;;;;;4882461;29;20049;-89
2022/10/16 10:56:31;;;;;;;0.45;0.45;;;20.20;90.80;;;;;;4882445;29;20548;-92
2022/10/16 10:59:09;;;;;;;1.77;1.67;;;20.40;90.70;;;;;;4883305;29;20335;-87
2022/10/16 11:01:44;;;;;;;0.43;0.43;;;20.50;90.30;;;;;;4883828;29;20496;-83
2022/10/16 11:04:31;;;;;;;1.65;1.55;;;20.90;91.20;;;;;;4868187;29;20088;-81
2022/10/16 11:07:03;;;;;;;1.02;0.82;;;21.00;89.70;;;;;;4902587;29;20139;-89
2022/10/16 11:09:44;;;;;;;0.87;0.87;;;21.10;88.10;;;;;;4921768;29;20191;-80
2022/10/16 11:12:30;;;;;;;0.85;0.85;;;21.20;88.50;;;;;;4980221;28;20663;-85
2022/10/16 11:15:02;;;;;;;1.05;0.95;;;21.40;89.10;;;;;;4981486;28;20076;-79
2022/10/16 11:17:41;;;;;;;0.47;0.47;;;21.50;85.10;;;;;;4980647;28;20022;-81
2022/10/16 11:20:44;;;;;;;0.95;0.90;;;21.70;87.50;;;;;;4963399;28;20335;-86
2022/10/16 11:23:23;;;;;;;0.88;0.80;;;21.90;85.90;;;;;;4920876;29;20234;-82
2022/10/16 11:25:50;;;;;;;0.73;0.73;;;22.10;85.80;;;;;;4906612;29;20462;-92
2022/10/16 11:28:20;;;;;;;0.10;0.10;;;22.10;84.90;;;;;;4920263;29;20462;-80
2022/10/16 11:31:13;;;;;;;9.40;2.40;;;22.30;83.30;;;;;;4919466;29;20047;-82
2022/10/16 11:34:15;;;;;;;0.75;0.75;;;22.40;83.70;;;;;;4903637;29;20500;-83
2022/10/16 11:36:47;;;;;;;2.17;2.08;;;22.70;82.90;;;;;;4902659;29;20558;-84
2022/10/16 11:39:30;;;;;;;0.45;0.45;;;22.80;80.70;;;;;;4920002;29;20032;-87
2022/10/16 11:42:10;;;;;;;0.30;0.30;;;22.80;80.00;;;;;;4919296;29;20036;-85
2022/10/16 11:44:42;;;;;;;0.17;0.17;;;22.90;79.50;;;;;;4921552;29;20035;-88
2022/10/16 11:47:26;;;;;;;0.20;0.20;;;22.70;79.50;;;;;;4919498;29;20032;-78
2022/10/16 11:50:01;;;;;;;2.03;1.88;;;22.90;79.20;;;;;;4919108;29;20039;-83
2022/10/16 11:52:40;;;;;;;0.47;0.47;;;23.10;78.20;;;;;;4919069;29;20497;-79
2022/10/16 11:55:16;;;;;;;0.73;0.73;;;23.20;78.10;;;;;;4919480;29;20036;-78
2022/10/16 11:57:49;;;;;;;16.35;2.63;;;23.30;77.40;;;;;;4924342;28;20015;-90
2022/10/16 12:00:24;;;;;;;4.75;4.40;;;23.60;77.30;;;;;;4982019;28;20077;-85
2022/10/16 12:02:52;;;;;;;1.00;0.98;;;23.70;76.80;;;;;;4965708;28;20236;-82
2022/10/16 12:05:29;;;;;;;1.55;1.10;;;23.70;75.90;;;;;;4981835;28;20096;-86
2022/10/16 12:15:41;;;;;;;0.52;0.52;;;24.40;74.00;;;;;;6086303;23;21177;-81
2022/10/16 12:18:24;;;;;;;1.23;1.00;;;24.30;75.30;;;;;;4944587;28;20046;-81
2022/10/16 12:20:59;;;;;;;1.67;0.95;;;24.40;73.80;;;;;;4947477;28;20061;-84
2022/10/16 12:23:25;;;;;;;0.10;0.10;;;24.50;73.50;;;;;;4965775;28;20037;-87
2022/10/16 12:25:56;;;;;;;0.52;0.52;;;24.50;73.00;;;;;;4962898;28;20027;-86
2022/10/16 12:28:27;;;;;;;1.70;1.27;;;24.60;73.00;;;;;;4965575;28;20038;-82
2022/10/16 12:30:59;;;;;;;0.20;0.20;;;24.70;72.70;;;;;;4963483;28;20023;-79
2022/10/16 12:33:26;;;;;;;1.02;0.77;;;24.90;71.80;;;;;;4963470;28;20067;-82
2022/10/16 12:35:53;;;;;;;0.68;0.63;;;25.10;72.40;;;;;;4963338;28;20027;-81
2022/10/16 12:38:27;;;;;;;0.35;0.35;;;25.30;70.80;;;;;;4962743;28;20034;-83
2022/10/16 12:41:02;;;;;;;2.85;1.50;;;25.50;69.90;;;;;;4963759;28;20329;-85
2022/10/16 12:43:42;;;;;;;1.27;1.23;;;25.40;69.20;;;;;;4963527;28;20518;-83
2022/10/16 12:46:08;;;;;;;0.40;0.40;;;25.70;69.30;;;;;;4946908;28;20035;-86
2022/10/16 12:48:35;;;;;;;0.32;0.32;;;25.70;69.00;;;;;;4946586;28;20039;-86
2022/10/16 12:51:11;;;;;;;2.05;1.45;;;25.60;68.90;;;;;;4945855;28;20034;-83
2022/10/16 12:53:37;;;;;;;0.13;0.13;;;25.80;68.90;;;;;;4963491;28;20097;-88
2022/10/16 12:56:18;;;;;;;0.90;0.63;;;26.00;68.40;;;;;;4963677;28;20034;-78
2022/10/16 12:59:28;;;;;;;1.45;1.30;;;26.20;68.40;;;;;;4962813;28;20058;-81
2022/10/16 13:02:35;;;;;;;0.52;0.52;;;26.20;67.50;;;;;;4867080;29;20079;-86
2022/10/16 13:05:34;;;;;;;1.20;1.17;;;26.20;67.50;;;;;;4829859;29;20065;-88
2022/10/16 13:08:35;;;;;;;0.93;0.82;;;26.20;67.00;;;;;;4830978;29;20106;-91
2022/10/16 13:11:28;;;;;;;4.30;1.52;;;26.60;67.30;;;;;;4830277;29;20083;-89
2022/10/16 13:14:15;;;;;;;1.20;1.10;;;26.60;65.60;;;;;;4829661;29;20041;-84
2022/10/16 13:32:15;;;;;;;1.92;1.35;;;27.30;63.40;;;;;;5557907;23;20055;-79
2022/10/16 13:34:46;;;;;;;0.35;0.35;;;27.30;63.90;;;;;;4961495;28;20042;-79
2022/10/16 13:37:19;;;;;;;0.30;0.30;;;27.40;63.20;;;;;;4966438;28;20178;-78
2022/10/16 13:39:46;;;;;;;3.88;1.92;;;;;;;;;;4951220;28;20027;-83
2022/10/16 13:42:27;;;;;;;3.83;1.35;;;27.70;62.70;;;;;;4968451;28;20351;-87
2022/10/16 13:44:55;;;;;;;1.50;1.20;;;27.80;63.30;;;;;;4970113;28;20038;-82
2022/10/16 13:47:24;;;;;;;8.68;1.77;;;28.00;62.90;;;;;;4966043;28;20714;-79
2022/10/16 13:50:04;;;;;;;0.30;0.30;;;28.00;61.60;;;;;;4947904;28;20441;-78
2022/10/16 13:52:31;;;;;;;8.55;1.67;;;28.20;61.60;;;;;;4962904;28;20106;-78
2022/10/16 13:54:57;;;;;;;1.17;1.10;;;28.30;61.40;;;;;;4962597;28;20073;-78
2022/10/16 13:57:24;;;;;;;0.20;0.20;;;28.40;60.80;;;;;;4961508;28;20102;-83
2022/10/16 13:59:51;;;;;;;0.52;0.50;;;28.30;61.20;;;;;;4964024;28;20027;-77
2022/10/16 14:02:30;;;;;;;1.35;1.27;;;28.30;61.00;;;;;;4948569;28;20422;-80
2022/10/16 14:17:54;;;;;;;0.70;0.70;;;29.50;59.30;;;;;;5477409;23;20054;-81
2022/10/16 14:20:26;;;;;;;5.88;5.45;;;29.30;58.90;;;;;;4966145;28;20122;-85
2022/10/16 14:23:00;;;;;;;0.63;0.40;;;29.60;58.20;;;;;;4983315;28;20026;-91
2022/10/16 14:25:29;;;;;;;0.52;0.50;;;29.60;57.80;;;;;;4982540;28;20478;-86
2022/10/16 14:28:14;;;;;;;1.27;1.17;;;29.50;57.50;;;;;;4984112;28;20050;-82
2022/10/16 14:30:54;;;;;;;0.20;0.20;;;29.50;57.40;;;;;;4982898;28;20044;-89
2022/10/16 14:33:23;;;;;;;0.22;0.22;;;29.60;56.90;;;;;;4964886;28;20037;-89
2022/10/16 14:36:05;;;;;;;1.77;0.98;;;29.40;56.70;;;;;;4981672;28;20034;-85
2022/10/16 14:38:32;;;;;;;0.93;0.77;;;29.50;56.60;;;;;;4963904;28;20157;-89
2022/10/16 14:40:59;;;;;;;0.47;0.40;;;29.60;56.50;;;;;;4982093;28;20030;-89